Time;durP1;ratioP1;P1;durP2;ratioP2;P2;SDS_P1;SDS_P2;PMS_P1;PMS_P2;Temp;Humidity;BMP_temperature;BMP_pressure;BME280_temperature;BME280_humidity;BME280_pressure;Samples;Min_cycle;Max_cycle;Signal;HPM_P1;HPM_P2
2023/06/12 00:01:12;;;;;;;0.93;0.93;;;15.50;78.30;;;;;;5055989;28;20917;-72
2023/06/12 00:03:40;;;;;;;3.60;1.27;;;15.40;77.90;;;;;;5055943;28;20201;-70
2023/06/12 00:06:09;;;;;;;1.43;1.07;;;15.40;79.60;;;;;;5055428;28;20848;-73
2023/06/12 00:08:35;;;;;;;3.23;1.50;;;15.40;79.50;;;;;;5055807;28;20401;-70
2023/06/12 00:11:07;;;;;;;2.37;2.27;;;15.40;79.70;;;;;;5055712;28;20512;-72
2023/06/12 00:13:33;;;;;;;0.87;0.87;;;15.40;81.30;;;;;;5055855;28;20401;-70
2023/06/12 00:15:58;;;;;;;1.30;1.23;;;15.30;82.30;;;;;;5055321;28;20926;-71
2023/06/12 00:18:24;;;;;;;2.37;2.27;;;;;;;;;;5055610;28;20460;-72
2023/06/12 00:20:50;;;;;;;1.80;1.50;;;15.30;80.90;;;;;;5055570;28;20220;-71
2023/06/12 00:23:16;;;;;;;2.70;1.80;;;15.30;81.90;;;;;;5055549;28;20976;-71
2023/06/12 00:25:42;;;;;;;0.77;0.77;;;15.30;82.80;;;;;;5055304;28;20593;-70
2023/06/12 00:28:07;;;;;;;0.80;0.80;;;15.10;83.80;;;;;;5055556;28;20469;-71
2023/06/12 00:30:33;;;;;;;0.83;0.83;;;15.10;85.50;;;;;;5055523;28;20546;-71
2023/06/12 00:33:00;;;;;;;1.10;1.03;;;;;;;;;;5055265;28;20253;-70
2023/06/12 00:35:25;;;;;;;1.63;1.53;;;15.20;84.00;;;;;;5055016;28;20695;-72
2023/06/12 00:37:51;;;;;;;2.00;1.73;;;15.40;86.40;;;;;;5055282;28;20539;-72
2023/06/12 00:40:17;;;;;;;1.50;1.40;;;15.20;86.60;;;;;;5055250;28;20197;-71
2023/06/12 00:42:47;;;;;;;1.43;1.33;;;15.10;88.20;;;;;;5055149;28;20551;-70
2023/06/12 00:45:18;;;;;;;1.23;1.23;;;15.10;88.90;;;;;;5055228;28;20425;-72
2023/06/12 00:47:47;;;;;;;4.10;2.10;;;15.10;87.70;;;;;;5054923;28;20491;-71
2023/06/12 00:50:13;;;;;;;2.50;2.30;;;15.10;88.40;;;;;;5054827;28;20923;-73
2023/06/12 00:52:44;;;;;;;0.90;0.90;;;15.10;89.90;;;;;;5054932;28;20413;-72
2023/06/12 00:55:14;;;;;;;0.93;0.93;;;15.10;90.60;;;;;;5054944;28;20429;-72
2023/06/12 00:57:44;;;;;;;1.27;1.27;;;15.10;90.70;;;;;;5054051;28;20404;-71
2023/06/12 01:00:12;;;;;;;2.00;1.90;;;15.10;91.20;;;;;;5054770;28;20538;-71
2023/06/12 01:02:42;;;;;;;1.93;1.83;;;14.90;90.90;;;;;;5054714;28;20453;-72
2023/06/12 01:05:10;;;;;;;1.13;1.07;;;14.90;91.00;;;;;;5054583;28;20424;-70
2023/06/12 01:07:59;;;;;;;0.50;0.50;;;14.80;91.10;;;;;;5054596;28;20399;-70
2023/06/12 01:10:32;;;;;;;1.00;1.00;;;14.80;91.40;;;;;;5054580;28;20405;-70
2023/06/12 01:12:59;;;;;;;1.63;1.37;;;14.90;91.10;;;;;;5054745;28;20420;-71
2023/06/12 01:15:25;;;;;;;1.23;1.23;;;15.00;90.50;;;;;;5054292;28;20424;-70
2023/06/12 01:17:51;;;;;;;1.13;1.07;;;15.00;91.30;;;;;;5054649;28;20462;-70
2023/06/12 01:20:17;;;;;;;1.70;1.60;;;15.00;91.60;;;;;;5054487;28;20178;-72
2023/06/12 01:22:51;;;;;;;2.00;1.90;;;14.90;91.50;;;;;;5054676;28;20553;-72
2023/06/12 01:25:36;;;;;;;1.40;1.30;;;14.70;92.20;;;;;;5054448;28;20474;-71
2023/06/12 01:28:37;;;;;;;1.27;0.93;;;14.70;92.60;;;;;;5054501;28;20414;-72
2023/06/12 01:31:13;;;;;;;1.00;0.93;;;14.60;92.80;;;;;;5054238;28;20486;-73
2023/06/12 01:33:41;;;;;;;2.00;1.37;;;14.50;92.70;;;;;;5054163;28;20417;-70
2023/06/12 01:36:11;;;;;;;0.47;0.47;;;14.50;93.30;;;;;;5053777;28;20433;-73
2023/06/12 01:38:39;;;;;;;1.37;1.27;;;14.40;93.40;;;;;;5054366;28;20431;-71
2023/06/12 01:41:08;;;;;;;0.70;0.67;;;14.30;93.90;;;;;;5054046;28;20420;-72
2023/06/12 01:43:36;;;;;;;0.83;0.80;;;14.40;94.40;;;;;;5053894;28;20448;-70
2023/06/12 01:46:03;;;;;;;1.70;1.47;;;14.30;94.50;;;;;;5053684;28;20431;-71
2023/06/12 01:48:29;;;;;;;1.43;1.33;;;14.20;94.40;;;;;;5053946;28;20478;-71
2023/06/12 01:50:54;;;;;;;1.50;1.40;;;14.20;94.70;;;;;;5054038;28;20397;-73
2023/06/12 01:53:21;;;;;;;1.43;1.43;;;14.00;94.50;;;;;;5054021;28;20404;-70
2023/06/12 01:55:49;;;;;;;0.70;0.70;;;13.90;95.10;;;;;;5053609;28;20192;-72
2023/06/12 01:58:15;;;;;;;0.97;0.97;;;13.90;95.70;;;;;;5053724;28;20554;-73
2023/06/12 02:00:41;;;;;;;2.30;2.10;;;13.90;95.70;;;;;;5053751;28;20866;-72
2023/06/12 02:03:07;;;;;;;1.00;1.00;;;13.90;95.90;;;;;;5053717;28;20202;-72
2023/06/12 02:05:33;;;;;;;2.60;2.50;;;13.90;96.30;;;;;;5053288;28;20456;-73
2023/06/12 02:07:59;;;;;;;0.90;0.90;;;;;;;;;;5053652;28;20634;-70
2023/06/12 02:10:25;;;;;;;2.27;1.63;;;13.80;96.30;;;;;;5052947;28;20647;-72
2023/06/12 02:12:51;;;;;;;1.00;1.00;;;13.80;96.60;;;;;;5053811;28;20409;-72
2023/06/12 02:15:16;;;;;;;1.60;1.50;;;13.80;96.80;;;;;;5053478;28;20951;-71
2023/06/12 02:17:42;;;;;;;1.37;1.23;;;13.90;96.50;;;;;;5053384;28;20178;-69
2023/06/12 02:20:08;;;;;;;1.47;1.20;;;13.90;96.40;;;;;;5053531;28;20249;-71
2023/06/12 02:22:34;;;;;;;1.30;1.30;;;13.90;96.70;;;;;;5053512;28;20551;-72
2023/06/12 02:24:59;;;;;;;2.20;2.10;;;13.60;99.90;;;;;;5053368;28;20405;-71
2023/06/12 02:27:25;;;;;;;1.43;1.33;;;13.80;97.10;;;;;;5053214;28;20180;-70
2023/06/12 02:29:51;;;;;;;1.60;1.50;;;;;;;;;;5053412;28;20631;-71
2023/06/12 02:32:17;;;;;;;0.70;0.63;;;13.80;96.70;;;;;;5053355;28;20177;-71
2023/06/12 02:34:43;;;;;;;0.90;0.90;;;;;;;;;;5053160;28;20421;-73
2023/06/12 02:37:09;;;;;;;2.03;1.93;;;13.80;96.30;;;;;;5053036;28;20253;-70
2023/06/12 02:39:35;;;;;;;1.47;1.33;;;13.80;96.70;;;;;;5053492;28;20578;-72
2023/06/12 02:42:00;;;;;;;2.30;2.10;;;13.80;96.70;;;;;;5053115;28;20177;-69
2023/06/12 02:44:26;;;;;;;2.40;2.20;;;13.90;96.90;;;;;;5053284;28;20465;-69
2023/06/12 02:46:57;;;;;;;2.50;1.37;;;13.80;97.10;;;;;;5053063;28;20555;-72
2023/06/12 02:49:25;;;;;;;1.10;1.10;;;13.80;97.10;;;;;;5053040;28;20696;-71
2023/06/12 02:51:50;;;;;;;0.97;0.93;;;13.90;97.10;;;;;;5053299;28;20409;-72
2023/06/12 02:54:18;;;;;;;1.93;1.83;;;13.90;97.30;;;;;;5052998;28;20414;-69
2023/06/12 02:56:46;;;;;;;1.10;1.00;;;13.90;96.70;;;;;;5052902;28;20232;-72
2023/06/12 02:59:17;;;;;;;1.70;1.60;;;14.00;96.50;;;;;;5053292;28;20407;-72
2023/06/12 03:01:44;;;;;;;1.60;1.50;;;14.10;96.10;;;;;;5053180;28;20428;-70
2023/06/12 03:04:18;;;;;;;1.80;1.33;;;14.10;95.90;;;;;;5053305;28;20425;-72
2023/06/12 03:06:45;;;;;;;1.23;1.13;;;14.10;96.50;;;;;;5052769;28;20494;-71
2023/06/12 03:09:11;;;;;;;8.33;1.83;;;14.20;96.50;;;;;;5052989;28;20499;-72
2023/06/12 03:11:37;;;;;;;2.57;1.33;;;14.20;96.20;;;;;;5053144;28;20439;-72
2023/06/12 03:14:04;;;;;;;1.03;1.00;;;14.30;96.30;;;;;;5053067;28;20926;-70
2023/06/12 03:16:30;;;;;;;4.23;2.13;;;14.20;96.50;;;;;;5052714;28;20186;-70
2023/06/12 03:18:57;;;;;;;1.00;1.00;;;14.30;96.10;;;;;;5052993;28;20462;-72
2023/06/12 03:21:23;;;;;;;0.90;0.90;;;14.30;96.50;;;;;;5055860;28;20170;-71
2023/06/12 03:23:48;;;;;;;1.57;1.40;;;14.30;96.90;;;;;;5056696;28;20463;-71
2023/06/12 03:26:14;;;;;;;1.90;1.57;;;14.30;96.80;;;;;;5056337;28;20432;-71
2023/06/12 03:28:40;;;;;;;1.40;0.90;;;14.30;96.90;;;;;;5056868;28;20174;-71
2023/06/12 03:31:05;;;;;;;1.30;1.20;;;14.10;97.20;;;;;;5056645;28;20650;-71
2023/06/12 03:33:31;;;;;;;1.13;1.13;;;14.00;97.20;;;;;;5056525;28;20182;-72
2023/06/12 03:35:57;;;;;;;1.57;1.47;;;14.00;97.30;;;;;;5056227;28;20197;-71
2023/06/12 03:38:26;;;;;;;0.87;0.87;;;14.00;97.10;;;;;;5056523;28;20253;-71
2023/06/12 03:40:51;;;;;;;2.23;1.83;;;14.00;97.10;;;;;;5055694;28;20785;-71
2023/06/12 03:43:17;;;;;;;1.90;1.00;;;14.00;97.40;;;;;;5056140;28;20452;-71
2023/06/12 03:45:43;;;;;;;1.80;1.67;;;;;;;;;;5055889;28;20670;-72
2023/06/12 03:48:09;;;;;;;2.03;1.80;;;14.10;96.70;;;;;;5055966;28;20651;-69
2023/06/12 03:50:34;;;;;;;0.90;0.90;;;14.10;96.90;;;;;;5056183;28;20451;-73
2023/06/12 03:53:00;;;;;;;0.93;0.93;;;14.20;97.40;;;;;;5056282;28;20170;-73
2023/06/12 03:55:26;;;;;;;1.90;1.80;;;14.10;97.40;;;;;;5055743;28;20534;-72
2023/06/12 03:57:51;;;;;;;2.33;1.77;;;14.10;97.50;;;;;;5055986;28;20188;-72
2023/06/12 04:00:19;;;;;;;3.37;3.07;;;14.10;97.90;;;;;;5055891;28;20252;-71
2023/06/12 04:02:45;;;;;;;1.60;1.50;;;14.00;98.30;;;;;;5055861;28;20202;-73
2023/06/12 04:05:11;;;;;;;1.63;1.63;;;14.00;98.20;;;;;;5056024;28;20478;-73
2023/06/12 04:07:37;;;;;;;1.47;1.37;;;14.00;98.70;;;;;;5055825;28;20895;-71
2023/06/12 04:10:03;;;;;;;2.73;2.60;;;13.90;98.80;;;;;;5055751;28;20170;-73
2023/06/12 04:12:29;;;;;;;1.07;1.07;;;13.90;98.80;;;;;;5055921;28;20419;-72
2023/06/12 04:14:55;;;;;;;1.43;1.23;;;13.80;99.90;;;;;;5055727;28;20409;-71
2023/06/12 04:17:21;;;;;;;1.17;1.10;;;14.00;98.40;;;;;;5055422;28;20435;-71
2023/06/12 04:19:49;;;;;;;2.00;1.90;;;13.90;98.80;;;;;;5055723;28;20264;-72
2023/06/12 04:22:16;;;;;;;1.83;1.73;;;14.00;99.30;;;;;;5055606;28;20477;-72
2023/06/12 04:24:42;;;;;;;1.23;0.93;;;;;;;;;;5055337;28;20754;-72
2023/06/12 04:27:11;;;;;;;1.53;1.43;;;14.30;99.10;;;;;;5055302;28;20393;-70
2023/06/12 04:29:38;;;;;;;1.13;1.10;;;14.80;99.00;;;;;;5055461;28;20458;-71
2023/06/12 04:32:07;;;;;;;1.00;0.90;;;15.20;98.80;;;;;;5054457;28;20405;-69
2023/06/12 04:34:43;;;;;;;2.53;2.33;;;15.80;96.50;;;;;;5055262;28;20412;-71
2023/06/12 04:37:13;;;;;;;1.37;1.27;;;16.70;96.20;;;;;;5055167;28;20484;-71
2023/06/12 04:39:43;;;;;;;1.60;1.50;;;17.40;95.60;;;;;;5055365;28;20401;-71
2023/06/12 04:42:10;;;;;;;2.67;1.90;;;17.80;93.60;;;;;;5055300;28;20451;-70
2023/06/12 04:44:37;;;;;;;1.43;1.33;;;17.70;92.80;;;;;;5055299;28;20412;-72
2023/06/12 04:47:14;;;;;;;1.67;1.17;;;17.70;92.40;;;;;;5054788;28;20433;-73
2023/06/12 04:49:43;;;;;;;1.00;0.90;;;17.60;92.60;;;;;;5054908;28;20788;-71
2023/06/12 04:52:09;;;;;;;1.70;1.60;;;17.80;91.80;;;;;;5054908;28;20404;-71
2023/06/12 04:54:41;;;;;;;2.50;1.43;;;17.70;91.90;;;;;;5054990;28;20401;-73
2023/06/12 04:57:08;;;;;;;1.40;1.40;;;17.50;91.40;;;;;;5054590;28;20429;-70
2023/06/12 04:59:37;;;;;;;3.80;1.20;;;17.40;91.80;;;;;;5054953;28;20409;-72
2023/06/12 05:02:04;;;;;;;0.80;0.80;;;17.50;92.50;;;;;;5054790;28;20414;-70
2023/06/12 05:04:30;;;;;;;1.47;1.40;;;17.50;92.40;;;;;;5054683;28;20398;-71
2023/06/12 05:06:56;;;;;;;1.10;1.10;;;17.70;92.90;;;;;;5054403;28;20458;-72
2023/06/12 05:09:22;;;;;;;0.90;0.90;;;17.80;91.90;;;;;;5054858;28;20176;-72
2023/06/12 05:11:47;;;;;;;1.67;1.57;;;17.90;92.80;;;;;;5054708;28;20210;-70
2023/06/12 05:14:13;;;;;;;1.60;1.50;;;18.00;91.80;;;;;;5054731;28;20417;-73
2023/06/12 05:16:38;;;;;;;1.70;1.60;;;18.00;91.80;;;;;;5054162;28;20283;-73
2023/06/12 05:19:05;;;;;;;1.27;1.17;;;18.20;92.70;;;;;;5054402;28;20181;-72
2023/06/12 05:21:31;;;;;;;2.23;2.03;;;18.50;91.50;;;;;;5054594;28;20172;-73
2023/06/12 05:23:56;;;;;;;0.83;0.83;;;18.50;91.20;;;;;;5054203;28;20541;-71
2023/06/12 05:26:23;;;;;;;2.13;1.53;;;18.60;91.50;;;;;;5054081;28;20200;-72
2023/06/12 05:28:48;;;;;;;0.90;0.90;;;18.60;89.20;;;;;;5054414;28;20167;-73
2023/06/12 05:31:14;;;;;;;0.50;0.40;;;18.60;88.90;;;;;;5054421;28;20408;-73
2023/06/12 05:33:40;;;;;;;0.67;0.53;;;18.60;86.90;;;;;;5054370;28;20645;-72
2023/06/12 05:36:07;;;;;;;1.53;1.43;;;18.70;84.60;;;;;;5053822;28;20201;-74
2023/06/12 05:38:33;;;;;;;0.80;0.80;;;18.90;81.40;;;;;;5054441;28;20166;-70
2023/06/12 05:40:59;;;;;;;1.00;1.00;;;19.10;82.10;;;;;;5054177;28;20539;-73
2023/06/12 05:43:24;;;;;;;1.17;1.17;;;19.40;82.00;;;;;;5053947;28;20353;-70
2023/06/12 05:45:50;;;;;;;1.07;1.07;;;19.50;77.30;;;;;;5053620;28;20507;-73
2023/06/12 05:48:17;;;;;;;1.00;1.00;;;19.60;77.30;;;;;;5053698;28;20177;-70
2023/06/12 05:50:43;;;;;;;0.70;0.70;;;19.60;78.20;;;;;;5053970;28;20176;-73
2023/06/12 05:53:09;;;;;;;1.50;1.40;;;19.60;76.80;;;;;;5053777;28;20440;-71
2023/06/12 05:55:34;;;;;;;1.27;1.27;;;19.60;76.20;;;;;;5053632;28;20204;-73
2023/06/12 05:58:00;;;;;;;0.83;0.83;;;19.70;75.30;;;;;;5053918;28;20195;-73
2023/06/12 06:00:26;;;;;;;1.20;1.10;;;19.70;75.80;;;;;;5053872;28;20180;-73
2023/06/12 06:02:51;;;;;;;0.80;0.80;;;19.90;76.40;;;;;;5053620;28;20208;-72
2023/06/12 06:05:17;;;;;;;1.00;0.90;;;20.10;75.70;;;;;;5053600;28;20277;-72
2023/06/12 06:07:43;;;;;;;0.70;0.70;;;20.40;73.00;;;;;;5053573;28;20249;-73
2023/06/12 06:10:09;;;;;;;1.10;0.90;;;21.10;71.60;;;;;;5053632;28;20835;-71
2023/06/12 06:12:35;;;;;;;1.53;1.43;;;21.70;70.40;;;;;;5053723;28;20173;-72
2023/06/12 06:15:00;;;;;;;0.90;0.90;;;22.80;79.40;;;;;;5053893;28;20467;-73
2023/06/12 06:17:26;;;;;;;1.50;1.40;;;22.70;63.90;;;;;;5053325;28;20506;-73
2023/06/12 06:19:52;;;;;;;1.67;1.10;;;23.50;62.00;;;;;;5053695;28;20178;-73
2023/06/12 06:22:17;;;;;;;0.97;0.87;;;24.20;60.40;;;;;;5053689;28;20205;-71
2023/06/12 06:24:44;;;;;;;1.03;1.03;;;27.50;52.70;;;;;;5053251;28;20197;-74
2023/06/12 06:27:10;;;;;;;1.10;1.10;;;27.40;52.50;;;;;;5053324;28;20177;-73
2023/06/12 06:29:36;;;;;;;0.77;0.77;;;29.20;49.30;;;;;;5053540;28;20439;-74
2023/06/12 06:32:02;;;;;;;1.00;0.80;;;30.90;47.50;;;;;;5053306;28;20409;-72
2023/06/12 06:34:28;;;;;;;1.10;1.00;;;31.90;41.10;;;;;;5053559;28;20170;-72
2023/06/12 06:36:56;;;;;;;1.63;0.90;;;32.40;39.40;;;;;;5053192;28;20424;-73
2023/06/12 06:39:22;;;;;;;1.30;1.20;;;33.00;38.30;;;;;;5052010;28;20592;-72
2023/06/12 06:41:48;;;;;;;1.23;1.10;;;32.90;37.50;;;;;;5053223;28;20421;-74
2023/06/12 06:44:13;;;;;;;1.10;1.00;;;32.80;37.30;;;;;;5053314;28;20215;-74
2023/06/12 06:46:39;;;;;;;1.93;1.20;;;32.90;36.20;;;;;;5053072;28;20217;-71
2023/06/12 06:49:05;;;;;;;1.40;0.97;;;32.70;36.00;;;;;;5053138;28;20189;-71
2023/06/12 06:51:31;;;;;;;1.00;0.90;;;31.90;38.10;;;;;;5053419;28;20567;-71
2023/06/12 06:53:57;;;;;;;1.37;1.27;;;31.40;37.80;;;;;;5053319;28;20166;-75
2023/06/12 06:56:23;;;;;;;1.20;1.00;;;30.70;38.00;;;;;;5055614;28;20464;-71
2023/06/12 06:58:49;;;;;;;0.80;0.80;;;30.60;40.10;;;;;;5057291;28;20447;-72
2023/06/12 07:01:15;;;;;;;0.73;0.73;;;31.00;39.30;;;;;;5057092;28;20181;-71
2023/06/12 07:03:41;;;;;;;1.50;1.10;;;31.30;38.40;;;;;;5057025;28;20650;-74
2023/06/12 07:06:07;;;;;;;1.10;1.10;;;31.10;38.40;;;;;;5056712;28;20435;-73
2023/06/12 07:08:33;;;;;;;0.83;0.83;;;30.40;38.70;;;;;;5057213;28;20178;-72
2023/06/12 07:10:59;;;;;;;1.03;0.80;;;29.80;39.00;;;;;;5057048;28;20758;-72
2023/06/12 07:13:24;;;;;;;0.90;0.90;;;29.50;40.30;;;;;;5056798;28;20305;-73
2023/06/12 07:15:51;;;;;;;0.73;0.73;;;29.90;39.00;;;;;;5056631;28;20190;-72
2023/06/12 07:18:17;;;;;;;0.97;0.83;;;29.80;40.60;;;;;;5056750;28;20178;-73
2023/06/12 07:20:43;;;;;;;1.70;1.17;;;29.40;40.10;;;;;;5056815;28;20408;-71
2023/06/12 07:23:08;;;;;;;2.33;1.00;;;28.30;41.10;;;;;;5056644;28;20514;-73
2023/06/12 07:25:34;;;;;;;0.97;0.97;;;26.90;42.30;;;;;;5056455;28;20212;-73
2023/06/12 07:28:00;;;;;;;0.67;0.67;;;25.60;43.20;;;;;;5056622;28;20170;-73
2023/06/12 07:30:26;;;;;;;0.83;0.83;;;25.40;44.40;;;;;;5056535;28;20190;-71
2023/06/12 07:32:52;;;;;;;0.80;0.80;;;25.80;56.30;;;;;;5056522;28;20176;-75
2023/06/12 07:35:18;;;;;;;0.70;0.70;;;25.80;45.90;;;;;;5056429;28;20478;-72
2023/06/12 07:37:45;;;;;;;1.20;1.17;;;26.50;43.10;;;;;;5056391;28;20889;-71
2023/06/12 07:40:12;;;;;;;1.80;1.23;;;27.30;43.20;;;;;;5056305;28;20249;-71
2023/06/12 07:42:38;;;;;;;1.20;1.10;;;26.90;43.40;;;;;;5056624;28;20952;-74
2023/06/12 07:45:05;;;;;;;0.80;0.80;;;27.10;43.20;;;;;;5056388;28;20424;-76
2023/06/12 07:47:30;;;;;;;0.70;0.70;;;27.60;41.30;;;;;;5056165;28;20171;-73
2023/06/12 07:49:58;;;;;;;0.80;0.80;;;27.90;41.20;;;;;;5056181;28;21050;-73
2023/06/12 07:52:24;;;;;;;0.80;0.70;;;29.00;39.30;;;;;;5054876;28;20556;-73
2023/06/12 07:54:50;;;;;;;1.00;0.90;;;31.10;41.20;;;;;;5055937;28;20420;-74
2023/06/12 07:57:16;;;;;;;1.00;0.83;;;31.40;37.90;;;;;;5055886;28;20197;-74
2023/06/12 07:59:42;;;;;;;1.53;1.20;;;32.00;36.50;;;;;;5056234;28;20408;-72
2023/06/12 08:02:09;;;;;;;0.67;0.67;;;32.50;36.40;;;;;;5055891;28;20462;-73
2023/06/12 08:04:35;;;;;;;1.50;1.40;;;32.80;36.80;;;;;;5056049;28;20266;-75
2023/06/12 08:07:01;;;;;;;1.27;0.83;;;33.50;34.30;;;;;;5054150;28;20471;-74
2023/06/12 08:09:26;;;;;;;0.67;0.67;;;34.00;33.90;;;;;;5055871;28;20769;-74
2023/06/12 08:11:52;;;;;;;1.60;1.50;;;33.00;34.50;;;;;;5055659;28;20179;-74
2023/06/12 08:14:18;;;;;;;0.77;0.77;;;33.30;40.20;;;;;;5055719;28;20257;-74
2023/06/12 08:16:45;;;;;;;1.37;0.93;;;33.30;34.60;;;;;;5055457;28;20198;-73
2023/06/12 08:19:12;;;;;;;1.13;1.10;;;34.40;33.60;;;;;;5055916;28;20201;-73
2023/06/12 08:21:39;;;;;;;1.03;0.93;;;35.50;33.60;;;;;;5055685;28;20416;-73
2023/06/12 08:24:07;;;;;;;0.80;0.80;;;36.60;31.60;;;;;;5055503;28;20464;-74
2023/06/12 08:26:33;;;;;;;1.20;1.10;;;37.30;30.80;;;;;;5053982;28;20963;-74
2023/06/12 08:28:59;;;;;;;1.40;1.10;;;37.70;30.00;;;;;;5055600;28;20401;-74
2023/06/12 08:31:24;;;;;;;0.87;0.87;;;37.30;30.00;;;;;;5055615;28;20166;-73
2023/06/12 08:33:50;;;;;;;1.57;1.27;;;37.60;30.70;;;;;;5055336;28;20235;-74
2023/06/12 08:36:15;;;;;;;1.50;1.40;;;37.80;29.80;;;;;;5055060;28;20198;-73
2023/06/12 08:38:41;;;;;;;0.80;0.80;;;37.20;28.90;;;;;;5055378;28;20185;-74
2023/06/12 08:41:07;;;;;;;1.00;1.00;;;36.70;30.00;;;;;;5055391;28;20170;-72
2023/06/12 08:43:33;;;;;;;1.03;0.87;;;36.50;29.80;;;;;;5055056;28;20206;-74
2023/06/12 08:46:06;;;;;;;1.00;0.90;;;36.30;32.20;;;;;;5055235;28;20192;-75
2023/06/12 08:48:33;;;;;;;0.70;0.70;;;35.60;29.30;;;;;;5055309;28;20463;-75
2023/06/12 08:51:00;;;;;;;1.27;0.80;;;33.80;31.40;;;;;;5055699;28;20404;-74
2023/06/12 08:53:27;;;;;;;1.20;0.80;;;33.80;31.90;;;;;;5055113;28;20753;-74
2023/06/12 08:55:54;;;;;;;1.43;1.23;;;34.30;32.00;;;;;;5055202;28;20802;-73
2023/06/12 08:58:20;;;;;;;1.23;1.13;;;34.90;32.30;;;;;;5055239;28;20880;-75
2023/06/12 09:00:46;;;;;;;0.83;0.83;;;35.20;30.20;;;;;;5055278;28;20409;-74
2023/06/12 09:03:12;;;;;;;1.20;1.20;;;35.00;31.10;;;;;;5055020;28;20201;-73
2023/06/12 09:05:39;;;;;;;0.93;0.93;;;35.20;29.60;;;;;;5054838;28;20924;-75
2023/06/12 09:08:05;;;;;;;1.07;1.07;;;34.30;29.40;;;;;;5054732;28;20568;-72
2023/06/12 09:10:32;;;;;;;1.17;0.83;;;32.30;33.60;;;;;;5054834;28;20492;-72
2023/06/12 09:12:58;;;;;;;1.57;1.47;;;32.30;33.70;;;;;;5054922;28;20400;-71
2023/06/12 09:15:24;;;;;;;1.20;1.00;;;32.90;32.90;;;;;;5054298;28;20435;-74
2023/06/12 09:17:52;;;;;;;1.80;1.03;;;33.60;33.60;;;;;;5053751;28;20413;-74
2023/06/12 09:20:33;;;;;;;1.53;1.43;;;34.20;30.30;;;;;;5051993;28;20181;-75
2023/06/12 09:23:00;;;;;;;1.57;0.97;;;33.20;32.40;;;;;;5052617;28;20509;-74
2023/06/12 09:25:37;;;;;;;1.57;1.47;;;32.90;32.50;;;;;;5053222;28;20425;-75
2023/06/12 09:28:04;;;;;;;0.90;0.90;;;33.70;31.00;;;;;;5053268;28;20412;-74
2023/06/12 09:30:33;;;;;;;1.03;1.03;;;34.20;31.60;;;;;;5053692;28;20782;-74
2023/06/12 09:33:03;;;;;;;1.10;1.00;;;34.90;31.30;;;;;;5052910;28;20413;-74
2023/06/12 09:35:28;;;;;;;1.47;1.13;;;34.70;30.50;;;;;;5052920;28;20432;-74
2023/06/12 09:37:58;;;;;;;0.80;0.80;;;35.00;29.50;;;;;;5053508;28;20396;-73
2023/06/12 09:40:24;;;;;;;1.00;1.00;;;35.20;30.40;;;;;;5054175;28;20690;-74
2023/06/12 09:42:50;;;;;;;1.07;1.07;;;35.40;31.60;;;;;;5054382;28;20444;-74
2023/06/12 09:45:20;;;;;;;1.03;1.00;;;35.30;30.10;;;;;;5054344;28;20482;-74
2023/06/12 09:47:49;;;;;;;1.20;1.10;;;34.50;29.30;;;;;;5054113;28;20400;-74
2023/06/12 09:50:19;;;;;;;1.10;1.00;;;34.70;30.90;;;;;;5054037;28;20425;-72
2023/06/12 09:52:47;;;;;;;0.87;0.87;;;34.60;30.00;;;;;;5054413;28;20478;-72
2023/06/12 09:55:15;;;;;;;1.00;1.00;;;34.60;30.20;;;;;;5054233;28;20871;-74
2023/06/12 09:57:43;;;;;;;1.20;1.10;;;34.30;29.30;;;;;;5054303;28;20412;-74
2023/06/12 10:00:11;;;;;;;1.10;1.10;;;32.10;30.20;;;;;;5054046;28;20503;-72
2023/06/12 10:02:45;;;;;;;1.13;1.00;;;31.20;32.70;;;;;;5052932;28;20793;-74
2023/06/12 10:05:28;;;;;;;0.80;0.80;;;29.70;33.10;;;;;;5051633;28;20467;-72
2023/06/12 10:07:59;;;;;;;0.90;0.90;;;28.30;34.80;;;;;;5052411;28;20543;-72
2023/06/12 10:10:25;;;;;;;1.37;1.10;;;28.30;35.70;;;;;;5053389;28;20401;-72
2023/06/12 10:12:52;;;;;;;1.70;1.60;;;29.10;38.20;;;;;;5053411;28;20905;-74
2023/06/12 10:15:20;;;;;;;1.83;1.23;;;29.70;35.20;;;;;;5053466;28;20432;-74
2023/06/12 10:17:47;;;;;;;1.93;1.13;;;30.10;37.40;;;;;;5053508;28;20806;-72
2023/06/12 10:20:14;;;;;;;1.30;1.20;;;31.10;34.50;;;;;;5053521;28;20504;-73
2023/06/12 10:22:40;;;;;;;1.27;1.17;;;31.30;32.50;;;;;;5053339;28;20456;-74
2023/06/12 10:25:08;;;;;;;1.13;1.03;;;31.80;34.20;;;;;;5053308;28;20790;-73
2023/06/12 10:27:36;;;;;;;1.40;1.30;;;32.30;32.30;;;;;;5053242;28;20991;-74
2023/06/12 10:30:03;;;;;;;1.73;1.63;;;32.00;30.80;;;;;;5052782;28;20808;-73
2023/06/12 10:32:32;;;;;;;1.03;1.00;;;30.40;32.40;;;;;;5053346;28;20416;-75
2023/06/12 10:34:59;;;;;;;0.80;0.77;;;29.70;45.50;;;;;;5053350;28;20416;-73
2023/06/12 10:37:30;;;;;;;0.97;0.90;;;29.60;35.60;;;;;;5053084;28;20416;-73
2023/06/12 10:40:18;;;;;;;0.90;0.80;;;30.40;35.70;;;;;;5053437;28;20736;-72
2023/06/12 10:43:01;;;;;;;1.27;1.17;;;31.00;34.50;;;;;;5053487;28;20527;-72
2023/06/12 10:45:32;;;;;;;4.03;1.30;;;31.40;34.60;;;;;;5053091;28;20428;-74
2023/06/12 10:48:06;;;;;;;1.17;1.07;;;30.40;33.50;;;;;;5053370;28;20401;-72
2023/06/12 10:50:44;;;;;;;1.37;1.27;;;29.70;37.10;;;;;;5053246;28;20403;-74
2023/06/12 10:53:13;;;;;;;1.17;1.07;;;29.20;34.60;;;;;;5053368;28;20409;-72
2023/06/12 10:55:39;;;;;;;3.47;1.40;;;28.60;39.40;;;;;;5052956;28;20421;-73
2023/06/12 10:58:07;;;;;;;1.57;1.23;;;28.80;36.30;;;;;;5053102;28;20411;-72
2023/06/12 11:00:37;;;;;;;2.73;1.43;;;28.70;34.70;;;;;;5053080;28;20821;-74
2023/06/12 11:03:11;;;;;;;1.13;1.00;;;28.30;37.70;;;;;;5053000;28;21007;-74
2023/06/12 11:05:39;;;;;;;0.97;0.97;;;28.10;36.90;;;;;;5052928;28;20433;-73
2023/06/12 11:08:07;;;;;;;0.70;0.70;;;28.00;37.30;;;;;;5053177;28;20413;-74
2023/06/12 11:10:35;;;;;;;0.80;0.80;;;27.90;36.00;;;;;;5053188;28;20770;-73
2023/06/12 11:13:02;;;;;;;1.00;0.93;;;27.60;36.40;;;;;;5053174;28;20440;-73
2023/06/12 11:15:31;;;;;;;1.07;0.93;;;27.20;36.70;;;;;;5052735;28;20436;-73
2023/06/12 11:17:56;;;;;;;1.27;0.90;;;27.10;36.10;;;;;;5053000;28;20957;-73
2023/06/12 11:20:23;;;;;;;4.37;1.73;;;27.20;38.10;;;;;;5053066;28;20447;-72
2023/06/12 11:23:00;;;;;;;3.07;1.30;;;27.40;37.00;;;;;;5052827;28;20240;-72
2023/06/12 11:25:46;;;;;;;0.83;0.70;;;27.20;37.10;;;;;;5052546;28;20443;-73
2023/06/12 11:28:13;;;;;;;0.83;0.80;;;27.40;38.00;;;;;;5052863;28;20867;-72
2023/06/12 11:30:42;;;;;;;0.80;0.80;;;27.50;37.00;;;;;;5051609;28;20935;-73
2023/06/12 11:33:12;;;;;;;0.80;0.80;;;27.30;36.80;;;;;;5052857;28;20862;-74
2023/06/12 11:35:42;;;;;;;1.00;1.00;;;27.00;38.90;;;;;;5052526;28;20435;-74
2023/06/12 11:38:12;;;;;;;1.30;1.20;;;27.00;38.50;;;;;;5052723;28;20436;-73
2023/06/12 11:40:39;;;;;;;1.57;1.00;;;26.70;37.80;;;;;;5052721;28;20496;-74
2023/06/12 11:43:05;;;;;;;0.97;0.93;;;26.40;40.40;;;;;;5056227;28;20451;-72
2023/06/12 11:45:31;;;;;;;1.00;1.00;;;26.70;39.30;;;;;;5056171;28;20779;-74
2023/06/12 11:47:58;;;;;;;3.90;1.60;;;27.10;43.60;;;;;;5056104;28;20423;-72
2023/06/12 11:50:24;;;;;;;1.73;1.07;;;27.20;38.60;;;;;;5056218;28;20197;-73
2023/06/12 11:52:50;;;;;;;1.20;1.10;;;27.40;39.00;;;;;;5056279;28;20387;-73
2023/06/12 11:55:16;;;;;;;1.17;0.73;;;27.30;37.30;;;;;;5055930;28;20535;-72
2023/06/12 11:57:47;;;;;;;1.10;1.00;;;27.30;40.50;;;;;;5055936;28;20412;-73
2023/06/12 12:00:16;;;;;;;1.27;1.17;;;27.20;38.70;;;;;;5056042;28;20474;-73
2023/06/12 12:02:49;;;;;;;1.20;1.10;;;27.10;43.40;;;;;;5055796;28;20456;-72
2023/06/12 12:05:20;;;;;;;1.27;1.17;;;27.20;37.40;;;;;;5055820;28;20828;-73
2023/06/12 12:07:49;;;;;;;1.43;1.20;;;27.10;39.60;;;;;;5055887;28;20877;-73
2023/06/12 12:10:15;;;;;;;1.23;1.13;;;27.30;39.70;;;;;;5055729;28;20404;-74
2023/06/12 12:12:50;;;;;;;0.90;0.87;;;27.40;38.60;;;;;;5056009;28;20558;-73
2023/06/12 12:15:23;;;;;;;1.53;1.43;;;27.50;40.60;;;;;;5055848;28;20208;-73
2023/06/12 12:17:49;;;;;;;1.30;1.20;;;27.50;39.50;;;;;;5055629;28;20409;-72
2023/06/12 12:20:15;;;;;;;0.80;0.80;;;27.40;38.10;;;;;;5055615;28;20405;-72
2023/06/12 12:22:42;;;;;;;1.60;1.50;;;27.20;39.50;;;;;;5055503;28;20480;-74
2023/06/12 12:25:09;;;;;;;1.47;1.07;;;27.00;38.90;;;;;;5055513;28;20443;-74
2023/06/12 12:27:36;;;;;;;1.13;1.13;;;27.20;40.90;;;;;;5055511;28;20404;-73
2023/06/12 12:30:07;;;;;;;1.43;1.37;;;27.30;38.40;;;;;;5055610;28;20417;-72
2023/06/12 12:32:33;;;;;;;1.33;1.20;;;27.30;39.00;;;;;;5055629;28;20907;-74
2023/06/12 12:34:59;;;;;;;1.00;1.00;;;26.80;50.50;;;;;;5055290;28;20444;-72
2023/06/12 12:37:25;;;;;;;1.37;1.27;;;26.50;40.70;;;;;;5054259;28;20436;-73
2023/06/12 12:39:51;;;;;;;1.63;1.53;;;26.40;40.90;;;;;;5053070;28;20180;-73
2023/06/12 12:42:18;;;;;;;1.53;1.17;;;26.50;39.50;;;;;;5055634;28;20409;-73
2023/06/12 12:44:44;;;;;;;1.37;1.27;;;26.60;41.10;;;;;;5055163;28;20523;-73
2023/06/12 12:47:10;;;;;;;1.07;0.97;;;26.80;39.40;;;;;;5052842;28;20420;-73
2023/06/12 12:49:35;;;;;;;1.50;0.90;;;26.90;41.30;;;;;;5053940;28;20520;-74